Moapa Valley, Nevada Weather observations

Data are for 10 minute period ending at time listed.
 Day   Time   Solar   Ave.   Ave.  Ave.  Vector  Max.   Baro.   Total    
  of    of     Rad.   Air    Rel.  Wind   Wind   Wind  Press.  Precip.   
Year   Day            Temp.  Hum.  Speed  Dir.   Gust                    
2014   (PST)  Kw/m2    F      %     mph   deg.    mph    mb.     in.     
-------------------------------------------------------------------------
 263    0:00   0.00   71.7    46    2.1   287     3.1   963.6    0.00 
 263    0:10   0.00   72.7    43    1.6   327     2.4   963.6    0.00 
 263    0:20   0.00   72.5    47    1.4   268     2.8   963.6    0.00 
 263    0:30   0.00   70.6    51    1.3   358     2.8   963.7    0.00 
 263    0:40   0.00   71.0    46    1.4   305     2.1   963.6    0.00 
 263    0:50   0.00   70.6    52    0.9   291     2.1   963.6    0.00 
 263    1:00   0.00   70.0    51    1.5   274     2.1   963.7    0.00 
 263    1:10   0.00   69.3    55    0.4   260     1.7   963.8    0.00 
 263    1:20   0.00   69.7    52    1.5   308     2.1   963.8    0.00 
 263    1:30   0.00   69.9    49    1.4   358     2.4   963.8    0.00 
 263    1:40   0.00   70.4    53    1.6   345     2.8   963.9    0.00 
 263    1:50   0.00   70.3    52    2.4   334     3.1   963.9    0.00 
 263    2:00   0.00   70.7    50    1.9   329     3.1   963.8    0.00 
 263    2:10   0.00   70.9    50    2.5   342     3.5   963.8    0.00 
 263    2:20   0.00   71.2    49    2.0   336     2.4   963.8    0.00 
 263    2:30   0.00   70.1    54    2.1   350     2.8   963.8    0.00 
 263    2:40   0.00   70.1    52    1.9   312     2.4   963.8    0.00 
 263    2:50   0.00   70.8    50    2.0   337     3.1   963.8    0.00 
 263    3:00   0.00   70.2    51    2.5   343     3.5   963.8    0.00 
 263    3:10   0.00   70.5    50    2.5   338     3.8   963.8    0.00 
 263    3:20   0.00   70.4    49    2.1   346     3.1   963.9    0.00 
 263    3:30   0.00   70.4    49    2.1   352     3.1   963.9    0.00 
 263    3:40   0.00   70.2    51    2.1   356     2.8   964.0    0.00 
 263    3:50   0.00   70.3    50    2.8   350     3.5   964.1    0.00 
 263    4:00   0.00   71.6    46    2.8   342     3.8   964.2    0.00 
 263    4:10   0.00   71.5    46    2.1   314     3.1   964.2    0.00 
 263    4:20   0.00   69.9    49    0.5   282     1.3   964.3    0.00 
 263    4:30   0.00   69.3    49    1.6   308     2.1   964.4    0.00 
 263    4:40   0.00   69.9    48    2.4   344     3.1   964.4    0.00 
 263    4:50   0.00   69.3    51    1.9   253     2.4   964.5    0.00 
 263    5:00   0.00   68.2    53    1.4   268     2.4   964.5    0.00 
 263    5:10   0.00   66.9    60    0.6   237     1.7   964.6    0.00 
 263    5:20   0.00   65.9    60    0.9   337     1.7   964.7    0.00 
 263    5:30   0.01   66.3    57    0.9    31     2.1   964.7    0.00 
 263    5:40   0.01   65.6    62    1.0   186     1.7   964.9    0.00 
 263    5:50   0.05   66.3    58    0.9   204     1.7   965.1    0.00 
 263    6:00   0.08   67.2    61    0.5    25     1.7   965.3    0.00 
 263    6:10   0.11   68.2    60    1.7   327     2.4   965.3    0.00 
 263    6:20   0.14   70.1    58    1.4   302     2.1   965.4    0.00 
 263    6:30   0.18   72.3    57    2.0   343     2.8   965.5    0.00 
 263    6:40   0.22   74.6    51    2.2   313     3.5   965.6    0.00 
 263    6:50   0.26   76.6    46    2.7   309     3.5   965.6    0.00 
 263    7:00   0.30   78.7    42    2.9   287     3.8   965.6    0.00 
 263    7:10   0.34   80.1    36    3.8   327     5.6   965.7    0.00 
 263    7:20   0.37   80.7    33    4.2   322     7.1   965.7    0.00 
 263    7:30   0.41   81.2    32    4.7   319     7.1   965.7    0.00 
 263    7:40   0.45   81.8    31    4.4   316     6.0   965.8    0.00 
 263    7:50   0.48   82.7    31    3.9   314     6.0   965.8    0.00 
 263    8:00   0.52   83.8    31    3.8   315     5.6   965.8    0.00 
 263    8:10   0.56   84.6    30    3.4   313     5.3   966.0    0.00 
 263    8:20   0.59   85.8    28    2.9   309     4.9   966.0    0.00 
 263    8:30   0.62   87.2    28    2.6   298     4.2   965.9    0.00 
 263    8:40   0.65   87.8    27    2.9   307     4.9   965.9    0.00 
 263    8:50   0.63   88.4    26    2.6   334     5.3   965.9    0.00 
 263    9:00   0.69   88.9    25    2.6   313     4.2   966.0    0.00 
 263    9:10   0.66   89.6    26    2.8   286     4.6   965.9    0.00 
 263    9:20   0.77   90.4    26    2.2    20     3.8   965.8    0.00 
 263    9:30   0.79   90.9    24    2.4   287     4.9   965.8    0.00 
 263    9:40   0.82   91.2    24    2.6    45     4.2   965.7    0.00 
 263    9:50   0.84   91.6    24    2.2   340     4.2   965.6    0.00 
 263   10:00   0.86   93.2    25    1.5   203     2.8   965.5    0.00 
 263   10:10   0.88   92.6    28    2.1   167     3.5   965.4    0.00 
 263   10:20   0.89   92.5    27    1.9   172     3.1   965.2    0.00 
 263   10:30   0.90   94.2    23    1.5   354     3.1   965.1    0.00 
 263   10:40   0.73   94.5    21    2.2   293     4.2   965.0    0.00 
 263   10:50   0.94   94.2    24    2.2   219     3.5   964.9    0.00 
 263   11:00   0.95   94.9    24    1.8   192     3.1   964.8    0.00 
 263   11:10   0.94   95.8    25    1.4   149     2.4   964.6    0.00 
 263   11:20   0.95   96.8    22    1.3   145     2.1   964.4    0.00 
 263   11:30   0.95   97.2    21    1.8   215     4.2   964.2    0.00 
 263   11:40   0.94   95.7    24    2.7   150     4.2   964.0    0.00 
 263   11:50   0.95   95.6    21    2.6   123     4.2   963.8    0.00 
 263   12:00   0.96   97.0    18    3.0     5     4.6   963.7    0.00 
 263   12:10   0.75   96.8    20    3.6   305     5.6   963.4    0.00 
 263   12:20   0.91   97.5    22    2.1   359     6.7   963.1    0.00 
 263   12:30   0.91   97.8    18    2.8    32     5.6   962.8    0.00 
 263   12:40   0.90   98.2    20    2.0   225     4.9   962.6    0.00 
 263   12:50   0.88   98.7    17    2.9     6     5.6   962.4    0.00 
 263   13:00   0.87   98.7    19    3.2   342     8.1   962.3    0.00 
 263   13:10   0.83   98.9    20    2.3   340     5.6   962.1    0.00 
 263   13:20   0.40   98.0    23    1.6   186     2.8   962.1    0.00 
 263   13:30   0.84   96.5    29    2.4   131     4.2   962.1    0.00 
 263   13:40   0.83   97.7    22    2.5   134     7.1   961.8    0.00 
 263   13:50   0.79   96.6    26    3.5   124     6.3   961.6    0.00 
 263   14:00   0.63   97.5    23    1.6   119     3.5   961.4    0.00 
 263   14:10   0.73   99.4    27    1.7   193     3.5   961.3    0.00 
 263   14:20   0.70   98.0    28    2.3   183     3.5   961.1    0.00 
 263   14:30   0.50   98.3    25    2.6   245     5.3   961.0    0.00 
 263   14:40   0.51   98.3    23    2.2   196     4.9   961.0    0.00 
 263   14:50   0.27   96.2    21    5.0   217     7.4   960.9    0.00 
 263   15:00   0.49   97.9    21    2.4   269     6.0   960.9    0.00 
 263   15:10   0.52   99.9    23    2.1    29     3.1   960.8    0.00 
 263   15:20   0.50   98.8    24    2.4   136     3.5   960.9    0.00 
 263   15:30   0.22   98.5    22    1.7   147     3.1   960.8    0.00 
 263   15:40   0.20   95.7    22    2.5   112     4.2   960.9    0.00 
 263   15:50   0.32   98.8    20    0.3   117     1.3   961.0    0.00 
 263   16:00   0.17  100.3    21    0.3   296     1.3   961.0    0.00 
 263   16:10   0.10   97.8    24    1.4    97     3.1   961.0    0.00 
 263   16:20   0.08   95.4    24    2.0   110     2.8   961.0    0.00 
 263   16:30   0.06   93.7    30    0.6   244     2.1   961.0    0.00 
 263   16:40   0.04   91.8    32    1.2   348     2.1   961.0    0.00 
 263   16:50   0.03   90.3    34    1.3   307     2.4   961.0    0.00 
 263   17:00   0.02   89.8    37    0.8   288     1.7   961.1    0.00 
 263   17:10   0.01   90.0    32    3.3    36     6.0   961.3    0.00 
 263   17:20   0.00   92.9    25    4.9    70    14.6   961.8    0.00 
 263   17:30   0.00   85.1    46    4.2   122     9.2   961.9    0.01 
 263   17:40   0.00   85.0    45    5.1    93     9.2   961.8    0.00 
 263   17:50   0.00   87.9    38    3.4    55     6.7   961.8    0.00 
 263   18:00   0.00   86.3    45    1.0   263     3.5   961.8    0.00 
 263   18:10   0.00   83.7    53    2.7   297     3.8   961.7    0.00 
 263   18:20   0.00   82.8    53    5.2   279     8.1   961.7    0.00 
 263   18:30   0.00   84.9    45    5.1   278     6.7   961.9    0.00 
 263   18:40   0.00   85.1    44    4.6   317     6.7   962.1    0.00 
 263   18:50   0.00   87.3    35    6.0   346    10.6   962.2    0.00 
 263   19:00   0.00   87.3    35    3.0   329     6.3   962.2    0.00 
 263   19:10   0.00   86.2    35    5.5   266     8.8   962.4    0.00 
 263   19:20   0.00   85.5    35    4.4   256     9.9   962.5    0.00 
 263   19:30   0.00   84.6    36    3.9   242     6.7   962.6    0.00 
 263   19:40   0.00   85.6    34    3.9   216     8.8   962.9    0.00 
 263   19:50   0.00   87.0    32    3.4    47     9.2   963.0    0.00 
 263   20:00   0.00   86.3    33    3.4   339     7.8   963.0    0.00 
 263   20:10   0.00   85.0    35    3.9   284     9.2   963.2    0.00 
 263   20:20   0.00   84.3    37    4.4   321     8.1   963.3    0.00 
 263   20:30   0.00   84.1    39    6.0   332     9.6   963.4    0.00 
 263   20:40   0.00   83.5    44    6.1   350     9.2   963.4    0.00 
 263   20:50   0.00   83.2    45    6.1   344     9.9   963.4    0.00 
 263   21:00   0.00   83.1    45    6.5   326     9.6   963.8    0.00 
 263   21:10   0.00   82.4    47    6.3   331     9.6   963.8    0.00 
 263   21:20   0.00   81.8    49    5.9   326    10.3   963.8    0.00 
 263   21:30   0.00   81.7    49    5.5   342    10.6   963.8    0.00 
 263   21:40   0.00   81.4    50    5.1   345     8.8   963.7    0.00 
 263   21:50   0.00   81.4    50    4.6   347     7.8   963.9    0.00 
 263   22:00   0.00   81.4    49    4.8   346     8.5   964.1    0.00 
 263   22:10   0.00   81.8    48    4.5   335     6.7   964.3    0.00 
 263   22:20   0.00   82.0    46    5.2   314    10.3   964.3    0.00 
 263   22:30   0.00   84.4    40    6.3   266    12.1   964.0    0.00 
 263   22:40   0.00   83.9    42    5.5   300     9.9   963.9    0.00 
 263   22:50   0.00   83.6    42    4.3   305     8.8   964.1    0.00 

Return to Moapa Valley graphs page.


Western Regional Climate Center,wrcc@dri.edu